Time;durP1;ratioP1;P1;durP2;ratioP2;P2;SDS_P1;SDS_P2;PMS_P1;PMS_P2;Temp;Humidity;BMP_temperature;BMP_pressure;BME280_temperature;BME280_humidity;BME280_pressure;Samples;Min_cycle;Max_cycle;Signal;HPM_P1;HPM_P2
2022/05/23 00:00:22;;;;;;;5.00;2.40;;;17.10;95.40;;;;;;5073471;28;20499;-42
2022/05/23 00:02:48;;;;;;;4.68;3.20;;;17.10;95.60;;;;;;5073559;28;20503;-44
2022/05/23 00:05:15;;;;;;;5.32;2.80;;;17.10;95.60;;;;;;5073669;28;20025;-48
2022/05/23 00:07:47;;;;;;;2.80;2.40;;;17.10;95.60;;;;;;5073206;28;20020;-45
2022/05/23 00:10:14;;;;;;;4.85;2.70;;;17.10;95.80;;;;;;5073331;28;20706;-40
2022/05/23 00:12:40;;;;;;;3.15;2.20;;;17.10;96.00;;;;;;5073188;28;20048;-45
2022/05/23 00:15:09;;;;;;;6.75;3.33;;;17.20;96.00;;;;;;5073213;28;20027;-46
2022/05/23 00:17:35;;;;;;;2.80;2.50;;;17.20;95.90;;;;;;5072715;28;20024;-45
2022/05/23 00:20:03;;;;;;;5.53;3.15;;;17.30;95.90;;;;;;5073102;28;20078;-45
2022/05/23 00:22:28;;;;;;;4.32;2.65;;;17.30;95.90;;;;;;5072867;28;20028;-45
2022/05/23 00:24:54;;;;;;;4.68;2.40;;;17.40;95.80;;;;;;5071647;28;20109;-43
2022/05/23 00:27:22;;;;;;;5.15;3.08;;;17.40;95.70;;;;;;5072695;28;20028;-44
2022/05/23 00:29:49;;;;;;;5.60;2.65;;;17.50;95.70;;;;;;5072906;28;20028;-47
2022/05/23 00:37:43;;;;;;;5.35;2.55;;;17.50;95.60;;;;;;5072628;28;20027;-48
2022/05/23 00:40:30;;;;;;;8.75;2.50;;;17.50;95.70;;;;;;5072427;28;20044;-45
2022/05/23 00:43:13;;;;;;;4.82;2.45;;;17.50;95.80;;;;;;5072811;28;20070;-49
2022/05/23 00:45:47;;;;;;;6.05;2.40;;;17.40;95.90;;;;;;5072628;28;20119;-49
2022/05/23 00:48:14;;;;;;;7.15;2.72;;;17.40;96.10;;;;;;5071332;28;20017;-49
2022/05/23 00:50:45;;;;;;;3.90;2.50;;;17.30;96.20;;;;;;5072248;28;20025;-44
2022/05/23 00:53:12;;;;;;;4.68;2.30;;;17.30;96.20;;;;;;5072630;28;20036;-45
2022/05/23 00:55:47;;;;;;;4.72;2.58;;;17.30;96.30;;;;;;5071873;28;20028;-44
2022/05/23 00:58:20;;;;;;;4.22;2.45;;;17.30;96.50;;;;;;5072188;28;20024;-44
2022/05/23 01:00:46;;;;;;;4.57;2.10;;;17.30;96.70;;;;;;5072284;28;20494;-47
2022/05/23 01:03:14;;;;;;;4.38;2.55;;;17.20;96.70;;;;;;5072279;28;20028;-39
2022/05/23 01:05:40;;;;;;;6.03;2.55;;;17.20;96.90;;;;;;5072303;28;20104;-43
2022/05/23 01:08:06;;;;;;;3.40;2.70;;;17.20;97.00;;;;;;5071641;28;20468;-46
2022/05/23 01:10:34;;;;;;;3.60;3.05;;;17.10;97.00;;;;;;5072109;28;20033;-43
2022/05/23 01:13:00;;;;;;;3.63;2.05;;;17.20;97.20;;;;;;5071907;28;20403;-43
2022/05/23 01:15:29;;;;;;;3.35;2.47;;;17.20;97.20;;;;;;5072182;28;20031;-43
2022/05/23 01:17:55;;;;;;;3.13;2.40;;;17.10;97.20;;;;;;5071637;28;20115;-47
2022/05/23 01:20:23;;;;;;;2.65;2.35;;;17.10;97.40;;;;;;5071840;28;20103;-46
2022/05/23 01:22:58;;;;;;;5.22;2.20;;;17.10;97.60;;;;;;5071836;28;20028;-39
2022/05/23 01:25:33;;;;;;;2.70;2.45;;;17.00;97.70;;;;;;5070743;28;20021;-47
2022/05/23 01:27:59;;;;;;;3.60;2.25;;;17.00;98.00;;;;;;5071921;28;20032;-44
2022/05/23 01:30:25;;;;;;;2.50;2.40;;;16.90;98.20;;;;;;5071782;28;20078;-43
2022/05/23 01:32:51;;;;;;;4.35;3.20;;;16.80;98.40;;;;;;5071697;28;20020;-46
2022/05/23 01:35:17;;;;;;;2.67;2.40;;;16.80;98.50;;;;;;5071716;28;20392;-45
2022/05/23 01:37:42;;;;;;;8.52;3.35;;;16.70;98.70;;;;;;5071688;28;20056;-44
2022/05/23 01:40:12;;;;;;;3.10;2.33;;;16.70;99.00;;;;;;5071527;28;20037;-46
2022/05/23 01:42:37;;;;;;;7.55;2.88;;;16.70;99.20;;;;;;5070242;28;20025;-46
2022/05/23 01:45:04;;;;;;;5.05;2.97;;;16.60;99.30;;;;;;5071723;28;20027;-45
2022/05/23 01:47:30;;;;;;;6.40;2.50;;;16.50;99.60;;;;;;5071270;28;20029;-44
2022/05/23 01:49:56;;;;;;;3.13;2.55;;;16.40;99.80;;;;;;5071667;28;20036;-43
2022/05/23 01:52:22;;;;;;;4.03;2.67;;;16.40;99.90;;;;;;5071568;28;20020;-47
2022/05/23 01:54:47;;;;;;;6.43;2.70;;;16.40;99.90;;;;;;5069838;28;20020;-47
2022/05/23 01:57:13;;;;;;;5.35;3.00;;;16.30;99.90;;;;;;5071347;28;20413;-45
2022/05/23 02:02:23;;;;;;;3.33;3.08;;;16.30;99.90;;;;;;5071419;28;20139;-48
2022/05/23 02:04:49;;;;;;;4.25;3.85;;;16.30;99.90;;;;;;5071577;28;20535;-43
2022/05/23 02:07:15;;;;;;;4.82;3.33;;;16.30;99.90;;;;;;5071087;28;20021;-42
2022/05/23 02:09:41;;;;;;;5.60;3.90;;;16.30;99.90;;;;;;5071766;28;20028;-43
2022/05/23 02:12:09;;;;;;;4.90;3.13;;;16.20;99.90;;;;;;5071344;28;20577;-46
2022/05/23 02:14:35;;;;;;;5.70;3.33;;;16.20;99.90;;;;;;5071557;28;20025;-43
2022/05/23 02:17:00;;;;;;;4.63;3.15;;;16.20;99.90;;;;;;5071226;28;20046;-43
2022/05/23 02:19:26;;;;;;;2.80;2.38;;;16.20;99.90;;;;;;5071373;28;20029;-44
2022/05/23 02:21:52;;;;;;;7.78;3.00;;;16.20;99.90;;;;;;5071347;28;20404;-46
2022/05/23 02:24:18;;;;;;;4.57;2.90;;;16.20;99.90;;;;;;5071536;28;20020;-43
2022/05/23 02:26:43;;;;;;;2.92;2.72;;;16.20;99.90;;;;;;5071234;28;20091;-43
2022/05/23 02:29:10;;;;;;;3.78;3.35;;;16.10;99.90;;;;;;5071543;28;20546;-45
2022/05/23 02:31:36;;;;;;;4.43;2.92;;;16.10;99.90;;;;;;5071611;28;20020;-46
2022/05/23 02:34:02;;;;;;;3.17;2.88;;;16.10;99.90;;;;;;5071211;28;20044;-41
2022/05/23 02:36:28;;;;;;;6.68;2.92;;;16.10;99.90;;;;;;5071344;28;20029;-48
2022/05/23 02:38:54;;;;;;;2.67;2.47;;;16.10;99.90;;;;;;5070520;28;20021;-48
2022/05/23 02:41:20;;;;;;;4.80;3.42;;;16.10;99.90;;;;;;5070951;28;20399;-42
2022/05/23 02:43:45;;;;;;;8.43;3.17;;;16.20;99.90;;;;;;5071138;28;20024;-47
2022/05/23 02:46:11;;;;;;;4.35;2.30;;;16.20;99.90;;;;;;5071271;28;20064;-46
2022/05/23 02:48:36;;;;;;;2.58;2.38;;;16.20;99.90;;;;;;5070709;28;20029;-43
2022/05/23 02:51:02;;;;;;;4.65;3.00;;;16.20;99.90;;;;;;5071167;28;20384;-43
2022/05/23 02:53:27;;;;;;;4.60;2.75;;;16.20;99.90;;;;;;5070533;28;20078;-43
2022/05/23 02:55:53;;;;;;;4.65;3.20;;;16.20;99.90;;;;;;5071383;28;20032;-39
2022/05/23 02:58:18;;;;;;;4.63;3.03;;;16.20;99.90;;;;;;5070922;28;20620;-44
2022/05/23 03:00:44;;;;;;;5.78;2.90;;;16.20;99.90;;;;;;5071465;28;20033;-44
2022/05/23 03:03:10;;;;;;;2.95;2.60;;;16.20;99.90;;;;;;5071111;28;20025;-46
2022/05/23 03:05:39;;;;;;;4.05;2.63;;;16.20;99.90;;;;;;5071733;28;20020;-44
2022/05/23 03:08:05;;;;;;;10.05;3.58;;;16.20;99.90;;;;;;5070780;28;20024;-44
2022/05/23 03:10:31;;;;;;;5.78;3.20;;;16.20;99.90;;;;;;5072174;28;20024;-48
2022/05/23 03:12:57;;;;;;;4.63;3.00;;;16.10;99.90;;;;;;5074456;28;20115;-45
2022/05/23 03:15:23;;;;;;;4.63;2.70;;;16.10;99.90;;;;;;5074368;28;20451;-47
2022/05/23 03:17:48;;;;;;;6.25;3.05;;;16.10;99.90;;;;;;5074030;28;20090;-42
2022/05/23 03:20:15;;;;;;;6.53;3.40;;;16.10;99.90;;;;;;5074244;28;20098;-46
2022/05/23 03:28:08;;;;;;;6.30;2.80;;;16.20;99.90;;;;;;5073899;28;20059;-44
2022/05/23 03:30:34;;;;;;;5.28;2.72;;;16.10;99.90;;;;;;5074102;28;20196;-42
2022/05/23 03:33:00;;;;;;;4.90;2.75;;;16.10;99.90;;;;;;5073913;28;20085;-45
2022/05/23 03:35:29;;;;;;;3.63;3.00;;;16.10;99.90;;;;;;5074018;28;20024;-44
2022/05/23 03:37:55;;;;;;;4.82;3.30;;;16.10;99.90;;;;;;5073593;28;20392;-44
2022/05/23 03:40:21;;;;;;;3.92;2.65;;;16.20;99.90;;;;;;5073756;28;20055;-44
2022/05/23 03:42:46;;;;;;;3.90;2.60;;;16.10;99.90;;;;;;5073771;28;20028;-44
2022/05/23 03:45:12;;;;;;;3.13;2.88;;;16.10;99.90;;;;;;5073770;28;20025;-46
2022/05/23 03:47:37;;;;;;;7.07;3.00;;;16.10;99.90;;;;;;5073418;28;20111;-46
2022/05/23 03:50:03;;;;;;;3.63;2.67;;;16.00;99.90;;;;;;5073565;28;20157;-49
2022/05/23 03:52:29;;;;;;;4.63;3.08;;;16.10;99.90;;;;;;5073656;28;20079;-43
2022/05/23 03:54:54;;;;;;;4.70;2.40;;;16.10;99.90;;;;;;5073591;28;20037;-45
2022/05/23 03:57:22;;;;;;;2.88;2.47;;;16.10;99.90;;;;;;5073696;28;20104;-45
2022/05/23 03:59:47;;;;;;;4.05;2.42;;;16.20;99.90;;;;;;5073419;28;20107;-44
2022/05/23 04:02:13;;;;;;;2.92;2.47;;;16.20;99.90;;;;;;5073461;28;20112;-39
2022/05/23 04:04:38;;;;;;;4.13;2.90;;;16.20;99.90;;;;;;5073479;28;20035;-45
2022/05/23 04:07:06;;;;;;;7.03;3.00;;;16.20;99.90;;;;;;5073256;28;20679;-41
2022/05/23 04:09:32;;;;;;;6.13;2.58;;;16.20;99.90;;;;;;5073476;28;20056;-43
2022/05/23 04:11:58;;;;;;;3.17;2.50;;;16.20;99.90;;;;;;5074614;28;20055;-43
2022/05/23 04:14:25;;;;;;;5.50;2.80;;;16.20;99.90;;;;;;5073118;28;20029;-44
2022/05/23 04:16:52;;;;;;;6.93;4.05;;;16.30;99.90;;;;;;5073628;28;20025;-46
2022/05/23 04:19:18;;;;;;;3.05;2.67;;;16.30;99.90;;;;;;5075612;28;20423;-45
2022/05/23 04:21:44;;;;;;;4.38;2.40;;;16.30;99.90;;;;;;5073523;28;20447;-47
2022/05/23 04:24:11;;;;;;;4.43;2.65;;;16.30;99.90;;;;;;5073151;28;20024;-44
2022/05/23 04:26:37;;;;;;;6.05;3.58;;;16.40;99.90;;;;;;5073015;28;20036;-44
2022/05/23 04:29:06;;;;;;;3.05;2.33;;;16.40;99.90;;;;;;5072733;28;20043;-44
2022/05/23 04:31:32;;;;;;;6.47;3.15;;;16.50;99.90;;;;;;5071618;28;20025;-44
2022/05/23 04:36:42;;;;;;;8.13;4.15;;;16.80;99.90;;;;;;5073104;28;20132;-45
2022/05/23 04:39:07;;;;;;;5.95;3.83;;;16.90;99.90;;;;;;5072651;28;20516;-40
2022/05/23 04:41:33;;;;;;;7.93;3.00;;;16.80;99.90;;;;;;5072768;28;20395;-43
2022/05/23 04:43:59;;;;;;;10.20;2.83;;;16.80;99.90;;;;;;5072600;28;20488;-43
2022/05/23 04:46:26;;;;;;;3.75;3.42;;;16.70;99.90;;;;;;5072166;28;20016;-43
2022/05/23 04:51:36;;;;;;;3.97;3.20;;;16.70;99.90;;;;;;5052612;28;20446;-43
2022/05/23 04:54:02;;;;;;;9.13;3.92;;;16.70;99.90;;;;;;5057908;28;20025;-50
2022/05/23 04:56:29;;;;;;;8.95;3.10;;;16.60;99.90;;;;;;5053411;28;20033;-40
2022/05/23 04:58:55;;;;;;;9.38;3.50;;;16.50;99.90;;;;;;5052001;28;20025;-43
2022/05/23 05:01:21;;;;;;;9.27;4.35;;;16.50;99.90;;;;;;5052096;28;20600;-40
2022/05/23 05:03:47;;;;;;;7.22;3.60;;;16.40;99.90;;;;;;5053187;28;20020;-43
2022/05/23 05:06:13;;;;;;;5.97;3.78;;;16.30;99.90;;;;;;5053333;28;20086;-42
2022/05/23 05:08:38;;;;;;;5.65;3.25;;;16.30;99.90;;;;;;5052913;28;20099;-41
2022/05/23 05:11:04;;;;;;;5.95;3.60;;;16.20;99.90;;;;;;5053200;28;20041;-42
2022/05/23 05:13:32;;;;;;;5.07;3.20;;;16.10;99.90;;;;;;5058695;28;20028;-40
2022/05/23 05:16:02;;;;;;;5.82;3.25;;;16.10;99.90;;;;;;5069180;28;20454;-46
2022/05/23 05:18:28;;;;;;;7.35;3.42;;;16.20;99.90;;;;;;5071400;28;20042;-47
2022/05/23 05:20:54;;;;;;;9.50;3.35;;;16.20;99.90;;;;;;5070368;28;20132;-45
2022/05/23 05:23:20;;;;;;;6.05;4.05;;;16.00;99.90;;;;;;5071869;28;20100;-43
2022/05/23 05:25:46;;;;;;;7.82;3.95;;;15.90;99.90;;;;;;5055162;28;20147;-44
2022/05/23 05:28:11;;;;;;;4.88;3.58;;;15.80;99.90;;;;;;5051721;28;20032;-44
2022/05/23 05:30:46;;;;;;;3.42;3.10;;;15.80;99.90;;;;;;5051873;28;20028;-39
2022/05/23 05:33:18;;;;;;;6.60;3.57;;;15.80;99.90;;;;;;5052257;28;20071;-46
2022/05/23 05:35:55;;;;;;;4.57;3.58;;;15.80;99.90;;;;;;5051789;28;20025;-40
2022/05/23 05:38:28;;;;;;;6.53;4.07;;;15.90;99.90;;;;;;5055206;28;20028;-43
2022/05/23 05:41:03;;;;;;;4.45;3.83;;;15.90;99.90;;;;;;5077489;22;20048;-48
2022/05/23 05:43:34;;;;;;;8.27;4.28;;;15.70;99.90;;;;;;5098483;28;20020;-46
2022/05/23 05:46:16;;;;;;;5.18;3.75;;;15.70;99.90;;;;;;5094107;28;20053;-47
2022/05/23 05:48:47;;;;;;;10.95;5.05;;;15.70;99.90;;;;;;5095899;28;20020;-48
2022/05/23 05:51:16;;;;;;;11.25;4.28;;;15.80;99.90;;;;;;5073654;28;20025;-50
2022/05/23 05:53:43;;;;;;;7.15;4.85;;;15.80;99.90;;;;;;5091639;28;20487;-49
2022/05/23 05:56:09;;;;;;;5.15;3.75;;;15.80;99.90;;;;;;5091513;28;20028;-45
2022/05/23 05:58:36;;;;;;;8.80;5.13;;;15.80;99.90;;;;;;5091248;28;20027;-45
2022/05/23 06:01:02;;;;;;;10.10;3.97;;;15.90;99.90;;;;;;5067472;28;20036;-49
2022/05/23 06:03:27;;;;;;;5.88;3.95;;;16.00;99.90;;;;;;5086285;28;20661;-48
2022/05/23 06:11:24;;;;;;;4.28;3.28;;;16.30;99.90;;;;;;5093667;28;20077;-44
2022/05/23 06:13:51;;;;;;;4.15;3.08;;;16.40;99.90;;;;;;5094438;28;20031;-44
2022/05/23 06:16:18;;;;;;;7.28;3.63;;;16.50;99.90;;;;;;5094833;28;20036;-48
2022/05/23 06:18:44;;;;;;;5.22;3.63;;;16.50;99.90;;;;;;5074605;28;20039;-45
2022/05/23 06:21:10;;;;;;;5.78;3.45;;;16.60;99.90;;;;;;5092368;28;20111;-49
2022/05/23 06:23:36;;;;;;;6.65;3.25;;;16.70;99.90;;;;;;5059541;28;20033;-44
2022/05/23 06:26:02;;;;;;;4.70;2.67;;;17.00;99.90;;;;;;5084682;28;20021;-45
2022/05/23 06:28:28;;;;;;;6.75;3.25;;;17.50;99.90;;;;;;5053649;28;20033;-44
2022/05/23 06:30:54;;;;;;;6.75;2.60;;;18.20;99.90;;;;;;5053878;28;20063;-43
2022/05/23 06:33:20;;;;;;;4.45;2.63;;;19.00;99.90;;;;;;5062991;28;20032;-47
2022/05/23 06:35:45;;;;;;;5.03;2.40;;;19.90;99.90;;;;;;5089625;28;20443;-45
2022/05/23 06:38:11;;;;;;;5.63;2.95;;;20.70;99.90;;;;;;5092274;28;20016;-43
2022/05/23 06:40:37;;;;;;;5.80;2.17;;;21.70;99.50;;;;;;5089804;28;20666;-44
2022/05/23 06:43:02;;;;;;;11.80;2.40;;;21.90;97.70;;;;;;5082673;28;20056;-47
2022/05/23 06:45:28;;;;;;;2.42;2.20;;;22.20;97.40;;;;;;5074706;28;20032;-47
2022/05/23 06:47:54;;;;;;;3.50;2.25;;;22.80;96.70;;;;;;5073098;28;20028;-44
2022/05/23 06:50:20;;;;;;;5.85;2.28;;;22.90;96.10;;;;;;5058058;28;20021;-44
2022/05/23 06:52:46;;;;;;;3.92;2.50;;;22.90;95.70;;;;;;5056952;28;20024;-46
2022/05/23 06:55:12;;;;;;;5.90;2.55;;;23.10;95.70;;;;;;5056905;28;20021;-48
2022/05/23 06:57:37;;;;;;;3.65;2.13;;;23.60;95.00;;;;;;5056858;28;20021;-46
2022/05/23 07:00:05;;;;;;;4.25;1.98;;;23.60;94.50;;;;;;5059094;28;20051;-46
2022/05/23 07:02:30;;;;;;;7.07;2.38;;;24.40;93.90;;;;;;5077513;28;20437;-48
2022/05/23 07:13:09;;;;;;;2.95;2.10;;;26.20;91.20;;;;;;5095455;28;20119;-55
2022/05/23 07:15:37;;;;;;;8.40;2.40;;;26.30;90.40;;;;;;5095154;28;20091;-47
2022/05/23 07:18:04;;;;;;;2.55;2.05;;;26.50;89.40;;;;;;5088696;28;20070;-46
2022/05/23 07:20:30;;;;;;;3.25;2.95;;;26.60;89.60;;;;;;5056319;28;20025;-48
2022/05/23 07:22:55;;;;;;;7.10;2.38;;;26.50;88.80;;;;;;5059969;28;20027;-48
2022/05/23 07:25:21;;;;;;;4.22;1.88;;;26.80;88.50;;;;;;5060288;28;20488;-47
2022/05/23 07:27:46;;;;;;;3.15;1.85;;;26.80;89.30;;;;;;5072068;28;20048;-45
2022/05/23 07:30:12;;;;;;;6.90;2.42;;;27.20;89.00;;;;;;5074857;28;20480;-48
2022/05/23 07:32:37;;;;;;;3.90;2.33;;;27.70;88.40;;;;;;5076855;28;20543;-45
2022/05/23 07:35:03;;;;;;;3.28;2.22;;;28.50;85.10;;;;;;5077394;28;20489;-47
2022/05/23 07:37:29;;;;;;;4.25;2.10;;;29.00;84.00;;;;;;5075938;28;20139;-49
2022/05/23 07:39:56;;;;;;;3.20;1.60;;;29.80;82.60;;;;;;5075536;28;20488;-50
2022/05/23 07:42:22;;;;;;;3.35;2.22;;;30.00;81.30;;;;;;5075966;28;20063;-48
2022/05/23 07:44:48;;;;;;;4.55;2.00;;;30.60;81.30;;;;;;5075706;28;20028;-48
2022/05/23 07:47:13;;;;;;;2.95;1.67;;;31.20;77.70;;;;;;5075466;28;20035;-47
2022/05/23 07:49:39;;;;;;;2.90;1.77;;;31.30;77.80;;;;;;5075456;28;20025;-50
2022/05/23 07:52:05;;;;;;;2.55;1.45;;;32.20;75.10;;;;;;5057687;28;20056;-47
2022/05/23 08:02:43;;;;;;;12.37;1.77;;;31.50;74.60;;;;;;5076031;28;20035;-45
2022/05/23 08:05:09;;;;;;;4.40;1.70;;;30.40;75.60;;;;;;5076545;28;20115;-46
2022/05/23 08:07:35;;;;;;;3.28;1.85;;;29.20;77.20;;;;;;5076138;28;20020;-46
2022/05/23 08:10:01;;;;;;;12.27;7.22;;;28.10;78.50;;;;;;5076516;28;20021;-47
2022/05/23 08:12:28;;;;;;;5.38;4.88;;;27.30;80.50;;;;;;5076311;28;20473;-46
2022/05/23 08:14:54;;;;;;;20.45;12.05;;;26.70;81.80;;;;;;5076016;28;20028;-47
2022/05/23 08:17:20;;;;;;;4.65;2.80;;;26.60;82.80;;;;;;5075948;28;20082;-49
2022/05/23 08:19:45;;;;;;;2.22;2.03;;;26.50;83.70;;;;;;5076444;28;20024;-49
2022/05/23 08:22:11;;;;;;;4.82;2.30;;;26.30;83.80;;;;;;5076277;28;20024;-49
2022/05/23 08:24:37;;;;;;;3.40;2.38;;;26.10;84.30;;;;;;5075836;28;20094;-50
2022/05/23 08:27:02;;;;;;;4.03;2.53;;;25.90;84.50;;;;;;5058232;28;20384;-45
2022/05/23 08:29:29;;;;;;;3.65;2.35;;;25.40;86.00;;;;;;5075769;28;20070;-48
2022/05/23 08:31:54;;;;;;;10.80;3.22;;;25.10;87.50;;;;;;5075747;28;20043;-50
2022/05/23 08:34:20;;;;;;;3.60;2.65;;;25.10;87.80;;;;;;5076058;28;20111;-50
2022/05/23 08:36:46;;;;;;;4.15;2.65;;;25.10;87.60;;;;;;5075351;28;20085;-46
2022/05/23 08:39:11;;;;;;;5.07;2.80;;;25.10;88.00;;;;;;5075285;28;20029;-49
2022/05/23 08:41:40;;;;;;;6.72;3.00;;;25.20;87.60;;;;;;5074487;28;20411;-50
2022/05/23 08:44:31;;;;;;;6.63;2.65;;;25.30;87.90;;;;;;5074566;28;20073;-48
2022/05/23 08:47:05;;;;;;;4.18;3.20;;;25.40;89.60;;;;;;5075014;28;20028;-48
2022/05/23 08:49:45;;;;;;;5.20;3.75;;;25.90;87.40;;;;;;5075193;28;20028;-45
2022/05/23 08:52:29;;;;;;;4.07;2.97;;;26.50;87.00;;;;;;5075312;28;20029;-46
2022/05/23 08:55:11;;;;;;;5.27;3.27;;;26.90;86.50;;;;;;5075279;28;20484;-45
2022/05/23 08:57:55;;;;;;;6.88;2.60;;;27.60;84.50;;;;;;5074758;28;20089;-47
2022/05/23 09:00:32;;;;;;;4.22;2.80;;;28.20;83.50;;;;;;5074958;28;20025;-46
2022/05/23 09:03:03;;;;;;;4.00;2.10;;;28.30;81.80;;;;;;5075222;28;20039;-45
2022/05/23 09:05:35;;;;;;;5.53;3.38;;;28.30;82.40;;;;;;5057780;28;20045;-43
2022/05/23 09:08:07;;;;;;;4.18;2.70;;;28.50;81.60;;;;;;5072546;28;20028;-52
2022/05/23 09:11:20;;;;;;;5.00;2.50;;;28.50;81.80;;;;;;5073365;28;20021;-48
2022/05/23 09:13:45;;;;;;;4.75;2.70;;;28.10;82.50;;;;;;5042717;28;20033;-46
2022/05/23 09:16:13;;;;;;;121.90;88.88;;;27.70;83.00;;;;;;5074448;28;20103;-48
2022/05/23 09:18:55;;;;;;;6.63;3.63;;;27.60;83.20;;;;;;5074406;28;20016;-44
2022/05/23 09:21:20;;;;;;;5.60;2.55;;;27.70;83.90;;;;;;5075060;28;20031;-47
2022/05/23 09:23:50;;;;;;;6.22;2.95;;;27.50;85.00;;;;;;5074838;28;20107;-44
2022/05/23 09:26:25;;;;;;;11.55;3.30;;;27.10;84.50;;;;;;5074951;28;20100;-46
2022/05/23 09:28:51;;;;;;;4.45;2.67;;;26.70;85.40;;;;;;5074657;28;20081;-45
2022/05/23 09:31:25;;;;;;;7.00;2.97;;;26.60;86.30;;;;;;5074811;28;20024;-45
2022/05/23 09:33:54;;;;;;;5.03;2.88;;;26.50;86.20;;;;;;5074847;28;20021;-45
2022/05/23 09:36:30;;;;;;;7.35;3.25;;;26.50;87.30;;;;;;5056632;28;20032;-50
2022/05/23 09:38:58;;;;;;;6.10;3.72;;;26.30;87.20;;;;;;5074575;28;20032;-49
2022/05/23 09:41:27;;;;;;;6.90;3.13;;;26.20;88.90;;;;;;5073602;28;20399;-53
2022/05/23 09:49:23;;;;;;;7.15;2.92;;;26.10;88.90;;;;;;5073624;28;20031;-45
2022/05/23 09:52:21;;;;;;;8.98;3.38;;;26.00;89.30;;;;;;5074052;28;20412;-47
2022/05/23 09:54:53;;;;;;;18.88;14.50;;;25.80;89.30;;;;;;5039726;28;20520;-48
2022/05/23 09:57:45;;;;;;;7.10;5.25;;;25.60;89.80;;;;;;5072851;28;20029;-46
2022/05/23 10:00:32;;;;;;;7.93;5.28;;;25.50;90.10;;;;;;5069293;28;20036;-48
2022/05/23 10:02:59;;;;;;;7.93;3.13;;;25.60;90.40;;;;;;5073213;28;20021;-49
2022/05/23 10:05:37;;;;;;;4.85;3.42;;;25.70;90.30;;;;;;5073667;28;20060;-49
2022/05/23 10:08:10;;;;;;;21.58;4.70;;;25.70;89.50;;;;;;5073278;28;20016;-45
2022/05/23 10:10:38;;;;;;;4.72;3.25;;;25.80;89.50;;;;;;5073518;28;20089;-46
2022/05/23 10:13:10;;;;;;;6.95;2.90;;;25.70;90.20;;;;;;5073246;28;20028;-45
2022/05/23 10:15:46;;;;;;;7.65;3.63;;;25.80;90.90;;;;;;5073572;28;20024;-51
2022/05/23 10:18:23;;;;;;;6.03;4.05;;;25.80;90.00;;;;;;5073736;28;20017;-49
2022/05/23 10:20:49;;;;;;;7.90;4.70;;;25.60;90.00;;;;;;5077191;28;20492;-47
2022/05/23 10:23:19;;;;;;;6.22;3.70;;;25.10;90.50;;;;;;5077575;28;20021;-45
2022/05/23 10:25:57;;;;;;;5.32;3.83;;;25.00;90.80;;;;;;5078227;28;20024;-47
2022/05/23 10:28:38;;;;;;;8.55;4.30;;;24.80;91.70;;;;;;5077106;28;20044;-48
2022/05/23 10:31:28;;;;;;;4.85;3.67;;;24.80;91.50;;;;;;5077393;28;20044;-46
2022/05/23 10:34:01;;;;;;;5.20;3.50;;;24.80;91.80;;;;;;5077092;28;20528;-48
2022/05/23 10:36:30;;;;;;;8.63;3.38;;;24.80;91.40;;;;;;5077558;28;20036;-47
2022/05/23 10:42:07;;;;;;;4.53;2.65;;;25.20;90.90;;;;;;5077745;28;20043;-47
2022/05/23 10:44:57;;;;;;;7.18;3.47;;;25.30;91.60;;;;;;5077247;28;20519;-45
2022/05/23 10:48:00;;;;;;;8.63;6.25;;;25.10;91.70;;;;;;5076376;28;20094;-46
2022/05/23 10:50:37;;;;;;;9.20;4.85;;;25.10;91.10;;;;;;5076777;28;20388;-46
2022/05/23 10:53:15;;;;;;;4.38;3.45;;;25.00;91.70;;;;;;5076412;28;20024;-46
2022/05/23 10:56:02;;;;;;;8.75;3.50;;;25.00;91.70;;;;;;5076703;28;20023;-49
2022/05/23 10:58:34;;;;;;;5.32;3.67;;;25.00;91.60;;;;;;5076458;28;20025;-50
2022/05/23 11:01:30;;;;;;;4.47;3.53;;;25.00;91.50;;;;;;5076009;28;20139;-47
2022/05/23 11:04:07;;;;;;;;;;;25.10;91.70;;;;;;5077370;28;20027;-44
2022/05/23 11:06:52;;;;;;;4.97;2.83;;;25.10;91.70;;;;;;5077264;28;19950;-45
2022/05/23 11:09:30;;;;;;;6.80;3.10;;;25.00;90.90;;;;;;5076818;28;20029;-46
2022/05/23 11:12:11;;;;;;;9.02;2.38;;;24.90;91.40;;;;;;5076689;28;20416;-46
2022/05/23 11:14:55;;;;;;;6.97;2.70;;;24.80;91.40;;;;;;5076406;28;20404;-50
2022/05/23 11:17:29;;;;;;;4.17;2.40;;;24.80;91.50;;;;;;5075997;28;20392;-46
2022/05/23 11:20:10;;;;;;;5.88;2.05;;;24.80;91.80;;;;;;5075901;28;20025;-44
2022/05/23 11:22:50;;;;;;;9.27;2.75;;;24.90;92.00;;;;;;5076682;28;20025;-44
2022/05/23 11:25:23;;;;;;;6.20;2.45;;;24.80;92.40;;;;;;5075784;28;20056;-46
2022/05/23 11:34:19;;;;;;;4.00;2.55;;;24.80;93.20;;;;;;5075931;28;20039;-44
2022/05/23 11:36:57;;;;;;;8.23;2.78;;;24.60;93.00;;;;;;5075559;28;20028;-50
2022/05/23 11:39:49;;;;;;;9.88;2.60;;;24.40;93.20;;;;;;5075236;28;20029;-48
2022/05/23 11:42:31;;;;;;;3.17;2.20;;;24.30;93.60;;;;;;5075343;28;20036;-43
2022/05/23 11:47:58;;;;;;;10.25;3.17;;;24.40;93.90;;;;;;5076270;28;20400;-46
2022/05/23 11:50:29;;;;;;;9.95;2.78;;;24.40;94.20;;;;;;5075524;28;20021;-46
2022/05/23 11:53:26;;;;;;;3.03;2.40;;;24.40;94.40;;;;;;5076571;28;20028;-45
2022/05/23 11:55:53;;;;;;;4.07;2.85;;;24.40;94.50;;;;;;5075891;28;20024;-47
2022/05/23 11:58:48;;;;;;;6.32;2.83;;;24.30;94.60;;;;;;5075633;28;20396;-47
2022/05/23 12:01:16;;;;;;;5.47;2.75;;;24.20;94.90;;;;;;5073321;28;20322;-44
2022/05/23 12:03:50;;;;;;;6.18;2.72;;;24.10;95.30;;;;;;5075937;28;20074;-44
2022/05/23 12:06:24;;;;;;;4.10;2.53;;;24.10;95.30;;;;;;5075311;28;20025;-44
2022/05/23 12:09:13;;;;;;;9.38;2.83;;;24.00;95.60;;;;;;5075807;28;20449;-44
2022/05/23 12:11:44;;;;;;;4.65;2.78;;;24.00;95.70;;;;;;5075545;28;20085;-44
2022/05/23 12:14:43;;;;;;;10.80;2.70;;;24.20;95.90;;;;;;5075090;28;20025;-46
2022/05/23 12:17:12;;;;;;;8.27;2.72;;;24.30;95.80;;;;;;5075078;28;20033;-47
2022/05/23 12:19:41;;;;;;;11.23;2.47;;;24.20;95.80;;;;;;5075356;28;20028;-46
2022/05/23 12:22:15;;;;;;;6.82;2.58;;;24.40;96.20;;;;;;5074706;28;20032;-45
2022/05/23 12:25:08;;;;;;;6.53;4.35;;;24.40;95.50;;;;;;5100589;22;20126;-49
2022/05/23 12:27:58;;;;;;;9.15;3.40;;;24.50;95.90;;;;;;5092291;28;20077;-47
2022/05/23 12:30:41;;;;;;;14.60;6.78;;;24.60;95.80;;;;;;5075158;28;20028;-52
2022/05/23 12:33:22;;;;;;;7.10;3.13;;;24.60;96.20;;;;;;5092994;28;20391;-45
2022/05/23 12:36:05;;;;;;;7.75;2.88;;;24.60;96.10;;;;;;5093291;28;20016;-44
2022/05/23 12:38:43;;;;;;;4.38;2.85;;;24.50;96.60;;;;;;5092759;28;20376;-43
2022/05/23 12:41:40;;;;;;;4.70;3.15;;;24.40;96.00;;;;;;5091377;28;20032;-49
2022/05/23 12:44:33;;;;;;;5.88;2.97;;;24.30;96.30;;;;;;5080948;28;20392;-43
2022/05/23 12:47:16;;;;;;;6.28;3.47;;;24.20;96.50;;;;;;5091976;28;20150;-43
2022/05/23 12:50:12;;;;;;;8.25;3.17;;;24.20;96.90;;;;;;5093292;28;20020;-44
2022/05/23 12:53:17;;;;;;;9.65;4.00;;;24.20;97.30;;;;;;5092794;28;20031;-40
2022/05/23 12:56:06;;;;;;;6.03;3.22;;;24.10;97.30;;;;;;5092394;28;20038;-45
2022/05/23 12:58:40;;;;;;;5.78;3.20;;;24.10;97.60;;;;;;5092317;28;20026;-43
2022/05/23 13:01:11;;;;;;;4.65;3.10;;;24.10;97.40;;;;;;5092453;28;20024;-43
2022/05/23 13:03:58;;;;;;;3.50;3.20;;;24.10;97.60;;;;;;5076346;28;20407;-44
2022/05/23 13:06:59;;;;;;;9.35;3.22;;;24.10;97.50;;;;;;5088941;28;20024;-44
2022/05/23 13:09:36;;;;;;;7.95;3.75;;;24.20;97.30;;;;;;5086490;28;20123;-44
2022/05/23 13:12:07;;;;;;;3.90;3.25;;;24.10;96.80;;;;;;5075160;28;20020;-45
2022/05/23 13:14:54;;;;;;;6.43;4.25;;;24.20;97.00;;;;;;5091528;28;20047;-46
2022/05/23 13:17:44;;;;;;;7.40;3.95;;;24.10;97.40;;;;;;5085206;28;20122;-47
2022/05/23 13:23:02;;;;;;;6.63;3.90;;;24.00;97.60;;;;;;5074502;28;20086;-50
2022/05/23 13:25:29;;;;;;;10.65;4.80;;;24.00;97.90;;;;;;5086991;28;20480;-46
2022/05/23 13:27:58;;;;;;;6.32;4.30;;;24.00;98.00;;;;;;5101969;28;20388;-49
2022/05/23 13:30:31;;;;;;;7.55;4.35;;;24.00;98.10;;;;;;5091595;28;20071;-47
2022/05/23 13:33:15;;;;;;;5.25;3.63;;;23.90;98.20;;;;;;5072561;28;20016;-45
2022/05/23 13:35:43;;;;;;;7.35;3.92;;;24.00;98.40;;;;;;5071743;28;20036;-48
2022/05/23 13:38:18;;;;;;;9.38;4.32;;;24.00;98.50;;;;;;5071436;28;20500;-47
2022/05/23 13:40:46;;;;;;;14.38;3.92;;;24.00;98.70;;;;;;5073137;28;20016;-47
2022/05/23 13:43:41;;;;;;;4.60;3.83;;;24.10;98.80;;;;;;5091386;28;20039;-46
2022/05/23 13:46:12;;;;;;;10.80;4.05;;;24.10;98.60;;;;;;5071681;28;20472;-47
2022/05/23 13:49:02;;;;;;;8.95;4.00;;;24.20;99.10;;;;;;5091274;28;20024;-51
2022/05/23 13:51:36;;;;;;;6.57;3.85;;;24.20;98.50;;;;;;5088412;28;20107;-50
2022/05/23 13:54:12;;;;;;;11.40;4.18;;;24.30;98.50;;;;;;5089504;28;20078;-49
2022/05/23 13:56:42;;;;;;;7.93;3.95;;;24.30;98.20;;;;;;5090596;28;20028;-44
2022/05/23 13:59:14;;;;;;;10.15;3.75;;;24.30;98.40;;;;;;5054543;28;20028;-45
2022/05/23 14:01:51;;;;;;;4.57;3.40;;;24.40;98.40;;;;;;5071452;28;20063;-46
2022/05/23 14:04:22;;;;;;;5.97;3.67;;;24.40;98.00;;;;;;5073123;28;20044;-45
2022/05/23 14:07:03;;;;;;;8.75;3.80;;;24.50;98.00;;;;;;5081350;28;20029;-46